ペトロパブロフスク・カムチャツキー の空港の天気 - METARとTAF

ペトロパブロフスク・カムチャツキー空港 ( UHPP / PKC ) - ロシア ペトロパブロフスク・カムチャツキー
飛行場実況気象(Metar)
観測時間07/01 20:00 MAGT (07/01 09:00 UTC)
風向・風速北西 3m/s
視程10km以上
天気現象
全天の8割程度の雲 雲底高度 3960m
気温20℃
湿度53%
気圧1002hPa
METARUHPP 010900Z 32003MPS 9999 BKN130 20/10 Q1002 R34L/CLRD70 NOSIG RMK QFE748/0997
過去の天気等 Google飛行場航空写真 Wunderground天気予報

過去48時間のMETAR

飛行場予報(TAF)
発表時間: 7/01 18:31 MAGT (7/01 07:31 UTC)
予報対象時間: 1日20時 MAGT ~ 3日2時 MAGT
風向・風速北 5m/s 瞬間風速 15m/s
視程10km以上
全天の4割程度の積乱雲 雲底高度 1220m
2日5時 MAGT ~ 2日14時 MAGT に一時的に
視程2000m
天気現象弱いしゅう雨 もや
全天の8割程度の雲 雲底高度 210m
全天の8割程度の積乱雲 雲底高度 460m
TAF UHPP 010731Z 0109/0215 35005G15MPS 9999 SCT040CB
TEMPO 0118/0203 2000 -SHRA BR BKN007 BKN015CB